Terminal Aerodrome Forecast
Issued by NWS

Home | Current Version | Previous Version | Graphics & Text | Print | Product List | Glossary On
Versions: 1 2 3 4 5 6 7 8 9 10 11 12 13 14 15 16 17 18 19 20
000
FTUS43 KBIS 291100
TAFJMS
TAF
KJMS 291125Z 2912/3012 VRB04KT 1/4SM FG VV002
      TEMPO 2912/2914 1SM BR
     FM291400 29008KT 5SM BR BKN005
     FM291500 29008KT P6SM SCT035
     FM291800 33011KT P6SM VCTS SCT030 SCT070CB
     FM300300 02008KT P6SM SCT070=

USA.gov is the U.S. government's official web portal to all federal, state and local government web resources and services.